Time;durP1;ratioP1;P1;durP2;ratioP2;P2;SDS_P1;SDS_P2;PMS_P1;PMS_P2;Temp;Humidity;BMP_temperature;BMP_pressure;BME280_temperature;BME280_humidity;BME280_pressure;Samples;Min_cycle;Max_cycle;Signal;HPM_P1;HPM_P2
2023/09/03 00:00:30;;;;;;;55.73;51.43;;;17.30;1.00;;;;;;5063936;28;21047;-73
2023/09/03 00:02:59;;;;;;;55.13;50.53;;;17.40;1.00;;;;;;5064726;28;20484;-72
2023/09/03 00:05:26;;;;;;;55.13;50.73;;;17.40;1.00;;;;;;5078513;28;20562;-73
2023/09/03 00:07:54;;;;;;;51.23;47.27;;;17.40;1.00;;;;;;5082705;28;20510;-72
2023/09/03 00:10:21;;;;;;;51.13;46.93;;;17.40;1.00;;;;;;5082183;28;20466;-73
2023/09/03 00:12:51;;;;;;;49.03;45.00;;;17.40;1.00;;;;;;5080710;28;20542;-72
2023/09/03 00:15:21;;;;;;;51.83;47.53;;;17.40;1.00;;;;;;5083360;28;20479;-72
2023/09/03 00:17:48;;;;;;;52.70;48.10;;;17.40;1.00;;;;;;5082226;28;21008;-73
2023/09/03 00:20:15;;;;;;;54.67;50.10;;;17.40;1.00;;;;;;5077281;28;20549;-73
2023/09/03 00:22:42;;;;;;;56.40;51.93;;;17.40;1.00;;;;;;5080466;28;20459;-73
2023/09/03 00:25:11;;;;;;;57.80;52.80;;;17.50;1.00;;;;;;5079483;28;20460;-72
2023/09/03 00:27:38;;;;;;;53.17;48.77;;;17.50;1.00;;;;;;5080719;28;21071;-72
2023/09/03 00:30:06;;;;;;;58.13;53.43;;;17.50;1.00;;;;;;5081150;28;20474;-74
2023/09/03 00:32:33;;;;;;;58.57;53.57;;;17.50;1.00;;;;;;5083573;28;20468;-74
2023/09/03 00:35:00;;;;;;;56.93;52.23;;;17.50;1.00;;;;;;5081489;28;20995;-71
2023/09/03 00:37:27;;;;;;;54.33;50.03;;;17.50;1.00;;;;;;5078689;28;20983;-73
2023/09/03 00:39:54;;;;;;;52.90;48.77;;;17.50;1.00;;;;;;5080806;28;21030;-74
2023/09/03 00:42:22;;;;;;;52.83;48.57;;;17.50;1.00;;;;;;5079835;28;21050;-72
2023/09/03 00:44:49;;;;;;;56.73;51.67;;;17.60;1.00;;;;;;5078860;28;20473;-73
2023/09/03 00:47:18;;;;;;;50.23;46.13;;;17.60;1.00;;;;;;5080040;28;20600;-72
2023/09/03 00:49:45;;;;;;;46.43;42.43;;;17.60;1.00;;;;;;5080062;28;21093;-72
2023/09/03 00:52:13;;;;;;;40.87;37.57;;;17.50;1.00;;;;;;5078777;28;20569;-76
2023/09/03 00:54:41;;;;;;;46.40;42.67;;;17.50;1.00;;;;;;5078975;28;20509;-75
2023/09/03 00:57:08;;;;;;;41.70;38.40;;;17.50;1.00;;;;;;5082124;28;20538;-72
2023/09/03 00:59:37;;;;;;;39.30;35.93;;;17.60;1.00;;;;;;5080450;28;20545;-72
2023/09/03 01:02:04;;;;;;;34.60;31.90;;;17.60;1.00;;;;;;5088533;22;20492;-82
2023/09/03 01:04:31;;;;;;;34.77;31.83;;;17.60;1.00;;;;;;5050077;28;20474;-74
2023/09/03 01:06:59;;;;;;;30.53;27.80;;;17.60;1.00;;;;;;5059586;28;20466;-88
2023/09/03 01:09:25;;;;;;;30.47;27.80;;;17.60;1.00;;;;;;5068287;28;21705;-87
2023/09/03 01:11:59;;;;;;;30.53;27.90;;;17.60;1.00;;;;;;5065506;28;20972;-85
2023/09/03 01:14:37;;;;;;;32.50;29.80;;;17.60;1.00;;;;;;5069831;28;20627;-80
2023/09/03 01:17:18;;;;;;;35.83;32.53;;;17.60;1.00;;;;;;5067687;28;20465;-88
2023/09/03 01:20:10;;;;;;;33.57;30.57;;;17.60;1.00;;;;;;5068849;28;20515;-86
2023/09/03 01:23:08;;;;;;;32.80;30.00;;;17.70;1.00;;;;;;5065771;28;20477;-87
2023/09/03 01:25:54;;;;;;;31.60;29.00;;;17.60;1.00;;;;;;5059752;28;20588;-88
2023/09/03 01:28:25;;;;;;;31.27;28.70;;;17.60;1.00;;;;;;5071652;28;20439;-84
2023/09/03 01:30:55;;;;;;;29.40;27.00;;;17.50;1.00;;;;;;5066073;28;20430;-84
2023/09/03 01:33:25;;;;;;;28.67;26.23;;;17.50;1.00;;;;;;5065561;28;20499;-87
2023/09/03 01:35:54;;;;;;;26.77;24.47;;;17.60;1.00;;;;;;5063474;28;20436;-84
2023/09/03 01:38:22;;;;;;;27.63;24.93;;;17.60;1.00;;;;;;5069999;28;20500;-77
2023/09/03 01:40:49;;;;;;;27.73;25.37;;;17.60;1.00;;;;;;5065890;28;20462;-83
2023/09/03 01:43:16;;;;;;;27.10;24.90;;;17.60;1.00;;;;;;5064529;28;20462;-77
2023/09/03 01:45:49;;;;;;;26.50;24.40;;;17.70;1.00;;;;;;5069832;28;20483;-85
2023/09/03 01:48:28;;;;;;;25.53;23.13;;;17.60;1.00;;;;;;5064950;28;20475;-88
2023/09/03 01:51:03;;;;;;;25.20;23.00;;;17.60;1.00;;;;;;5063585;28;20522;-81
2023/09/03 01:53:37;;;;;;;27.57;25.37;;;17.60;1.00;;;;;;5066003;28;20515;-77
2023/09/03 01:56:05;;;;;;;25.40;23.20;;;17.60;1.00;;;;;;5071185;28;20556;-88
2023/09/03 01:58:37;;;;;;;25.97;23.87;;;17.60;1.00;;;;;;5069915;28;20494;-87
2023/09/03 02:01:06;;;;;;;25.30;22.87;;;17.60;1.00;;;;;;5066610;28;20460;-87
2023/09/03 02:03:34;;;;;;;26.33;23.90;;;17.50;1.00;;;;;;5071009;28;20478;-86
2023/09/03 02:06:01;;;;;;;24.80;22.90;;;17.50;1.00;;;;;;5070027;28;20440;-78
2023/09/03 02:08:28;;;;;;;24.77;22.57;;;17.40;1.00;;;;;;5069989;28;20906;-86
2023/09/03 02:10:55;;;;;;;23.27;21.23;;;17.40;1.00;;;;;;5069543;28;20790;-72
2023/09/03 02:13:21;;;;;;;25.20;23.00;;;17.30;1.00;;;;;;5062861;28;20459;-72
2023/09/03 02:15:48;;;;;;;24.40;22.10;;;17.30;1.00;;;;;;5061039;28;20486;-75
2023/09/03 02:18:17;;;;;;;27.00;23.90;;;17.20;1.00;;;;;;5049464;28;21720;-73
2023/09/03 02:20:44;;;;;;;24.23;21.90;;;17.20;1.00;;;;;;5061661;28;20464;-72
2023/09/03 02:23:11;;;;;;;24.07;21.67;;;17.10;1.00;;;;;;5048312;28;20475;-73
2023/09/03 02:25:38;;;;;;;24.50;22.40;;;17.20;1.00;;;;;;5045220;28;20557;-73
2023/09/03 02:28:07;;;;;;;26.07;23.27;;;17.10;1.00;;;;;;5044004;28;20894;-71
2023/09/03 02:30:34;;;;;;;23.57;21.27;;;17.10;1.00;;;;;;5058713;28;20472;-72
2023/09/03 02:33:01;;;;;;;25.13;22.73;;;17.00;1.00;;;;;;5055350;28;20539;-73
2023/09/03 02:35:29;;;;;;;25.90;23.40;;;17.10;1.00;;;;;;5058899;28;20462;-72
2023/09/03 02:37:56;;;;;;;25.80;23.50;;;17.00;1.00;;;;;;5058966;28;20987;-77
2023/09/03 02:40:23;;;;;;;24.43;22.03;;;17.00;1.00;;;;;;5064590;28;20472;-72
2023/09/03 02:42:50;;;;;;;25.40;22.80;;;17.00;1.00;;;;;;5062752;28;20461;-72
2023/09/03 02:45:17;;;;;;;25.13;22.53;;;16.90;1.00;;;;;;5065379;28;21022;-73
2023/09/03 02:47:44;;;;;;;23.43;21.37;;;16.90;1.00;;;;;;5063828;28;20914;-72
2023/09/03 02:50:11;;;;;;;24.27;21.97;;;16.90;1.00;;;;;;5066101;28;21001;-74
2023/09/03 02:52:39;;;;;;;23.60;21.37;;;16.80;1.00;;;;;;5066244;28;20549;-72
2023/09/03 02:55:06;;;;;;;24.03;21.47;;;16.80;1.00;;;;;;5063425;28;20606;-73
2023/09/03 02:57:33;;;;;;;23.27;21.00;;;16.80;1.00;;;;;;5064416;28;20458;-72
2023/09/03 03:00:05;;;;;;;24.03;20.07;;;16.80;1.00;;;;;;5063086;28;20478;-73
2023/09/03 03:02:31;;;;;;;22.13;20.23;;;16.80;1.00;;;;;;5061329;28;20455;-75
2023/09/03 03:04:58;;;;;;;22.30;20.27;;;16.70;1.00;;;;;;5063006;28;20463;-71
2023/09/03 03:07:26;;;;;;;24.97;21.00;;;16.70;1.00;;;;;;5063419;28;20551;-71
2023/09/03 03:09:54;;;;;;;23.27;20.97;;;16.70;1.00;;;;;;5065804;28;20567;-73
2023/09/03 03:12:21;;;;;;;21.27;19.47;;;16.80;1.00;;;;;;5065610;28;21037;-73
2023/09/03 03:14:49;;;;;;;21.97;19.90;;;16.70;1.00;;;;;;5064703;28;20551;-74
2023/09/03 03:17:16;;;;;;;22.07;20.17;;;16.70;1.00;;;;;;5063850;28;20448;-77
2023/09/03 03:19:43;;;;;;;23.70;21.33;;;16.60;1.00;;;;;;5062572;28;20569;-73
2023/09/03 03:22:13;;;;;;;21.77;19.87;;;16.60;1.00;;;;;;5061855;28;20448;-72
2023/09/03 03:24:40;;;;;;;19.80;17.90;;;16.50;1.00;;;;;;5057381;28;20462;-72
2023/09/03 03:27:09;;;;;;;21.07;19.17;;;16.50;1.00;;;;;;5064108;28;20555;-73
2023/09/03 03:29:36;;;;;;;19.53;17.70;;;16.50;1.00;;;;;;5065673;28;20464;-73
2023/09/03 03:32:04;;;;;;;20.43;18.60;;;16.50;1.00;;;;;;5064071;28;20473;-77
2023/09/03 03:34:31;;;;;;;17.93;16.30;;;16.50;1.00;;;;;;5066831;28;20479;-87
2023/09/03 03:36:58;;;;;;;18.03;16.53;;;16.60;1.00;;;;;;5066630;28;20502;-85
2023/09/03 03:39:25;;;;;;;14.50;13.20;;;16.70;1.00;;;;;;5068843;28;20978;-89
2023/09/03 03:41:52;;;;;;;13.40;12.30;;;16.70;1.00;;;;;;5064469;28;20647;-88
2023/09/03 03:44:20;;;;;;;14.93;13.70;;;16.70;1.00;;;;;;5070066;28;20467;-83
2023/09/03 03:46:47;;;;;;;13.00;11.73;;;16.80;1.00;;;;;;5067280;28;20592;-77
2023/09/03 03:49:14;;;;;;;12.40;11.40;;;16.80;1.00;;;;;;5068769;28;20550;-89
2023/09/03 03:51:41;;;;;;;12.37;11.30;;;17.00;1.00;;;;;;5066017;28;20467;-85
2023/09/03 03:54:08;;;;;;;11.47;10.43;;;17.10;1.00;;;;;;5067079;28;21096;-89
2023/09/03 03:56:35;;;;;;;12.93;11.80;;;17.10;1.00;;;;;;5072571;28;21059;-89
2023/09/03 03:59:03;;;;;;;11.33;10.30;;;17.10;1.00;;;;;;5067759;28;20473;-78
2023/09/03 04:01:32;;;;;;;12.53;11.53;;;17.10;1.00;;;;;;5065917;28;20486;-83
2023/09/03 04:03:59;;;;;;;10.93;9.90;;;17.10;1.00;;;;;;5061555;28;20602;-88
2023/09/03 04:06:27;;;;;;;11.50;10.40;;;17.10;1.00;;;;;;5064081;28;20477;-87
2023/09/03 04:08:55;;;;;;;11.83;10.73;;;17.10;1.00;;;;;;5069167;28;20953;-80
2023/09/03 04:11:24;;;;;;;10.60;9.70;;;17.00;1.00;;;;;;5067827;28;20902;-86
2023/09/03 04:13:51;;;;;;;10.80;9.87;;;17.00;1.00;;;;;;5067699;28;20464;-87
2023/09/03 04:16:20;;;;;;;10.10;9.20;;;17.00;1.00;;;;;;5063875;28;20499;-85
2023/09/03 04:18:49;;;;;;;11.10;10.00;;;16.90;1.00;;;;;;5058197;28;20547;-85
2023/09/03 04:21:16;;;;;;;10.37;9.57;;;16.90;1.00;;;;;;5056544;28;20470;-88
2023/09/03 04:23:43;;;;;;;11.00;10.00;;;16.80;1.00;;;;;;5053609;28;20562;-81
2023/09/03 04:26:11;;;;;;;11.73;10.63;;;16.80;1.00;;;;;;5053361;28;20993;-89
2023/09/03 04:28:38;;;;;;;9.87;9.17;;;16.90;1.00;;;;;;5062127;28;20555;-89
2023/09/03 04:31:08;;;;;;;10.93;9.93;;;16.80;1.00;;;;;;5065249;28;20958;-86
2023/09/03 04:33:36;;;;;;;10.67;9.50;;;16.80;1.00;;;;;;5068869;28;20470;-86
2023/09/03 04:36:05;;;;;;;11.27;9.30;;;16.80;1.00;;;;;;5071697;28;20447;-79
2023/09/03 04:38:33;;;;;;;9.30;8.50;;;16.80;1.00;;;;;;5077726;28;20429;-85
2023/09/03 04:41:05;;;;;;;9.83;8.83;;;16.80;1.00;;;;;;5074730;28;20538;-85
2023/09/03 04:43:33;;;;;;;9.90;9.10;;;16.80;1.00;;;;;;5078701;28;20467;-75
2023/09/03 04:46:00;;;;;;;8.57;7.83;;;16.80;1.00;;;;;;5076728;28;20499;-86
2023/09/03 04:48:27;;;;;;;9.40;8.00;;;16.80;1.00;;;;;;5072824;28;21346;-86
2023/09/03 04:50:57;;;;;;;9.73;8.93;;;16.80;1.00;;;;;;5070724;28;21192;-84
2023/09/03 04:53:26;;;;;;;8.80;8.00;;;16.90;1.00;;;;;;5064888;28;20472;-85
2023/09/03 04:55:53;;;;;;;8.20;7.50;;;16.90;1.00;;;;;;5071072;28;20480;-81
2023/09/03 04:58:20;;;;;;;9.10;8.30;;;16.90;1.00;;;;;;5073155;28;20439;-85
2023/09/03 05:00:47;;;;;;;8.33;7.63;;;16.90;1.00;;;;;;5066834;28;20838;-81
2023/09/03 05:03:14;;;;;;;7.67;7.07;;;16.90;1.00;;;;;;5083936;28;21224;-78
2023/09/03 05:05:41;;;;;;;9.33;7.70;;;17.00;1.00;;;;;;5092137;28;20458;-84
2023/09/03 05:08:09;;;;;;;7.23;6.60;;;17.00;1.00;;;;;;5089982;28;22142;-85
2023/09/03 05:10:38;;;;;;;8.13;7.40;;;17.10;1.00;;;;;;5097244;28;20495;-87
2023/09/03 05:13:05;;;;;;;8.93;7.27;;;17.10;1.00;;;;;;5086182;28;20540;-81
2023/09/03 05:15:33;;;;;;;7.80;7.10;;;17.10;1.00;;;;;;5092334;28;20501;-79
2023/09/03 05:18:00;;;;;;;7.00;6.37;;;17.10;1.00;;;;;;5094607;28;20430;-83
2023/09/03 05:20:27;;;;;;;6.67;6.07;;;17.10;1.00;;;;;;5089907;28;21214;-86
2023/09/03 05:22:55;;;;;;;6.73;6.03;;;17.10;1.00;;;;;;5088484;27;20501;-85
2023/09/03 05:25:22;;;;;;;6.60;5.83;;;17.20;1.00;;;;;;5092884;27;20491;-85
2023/09/03 05:27:50;;;;;;;8.30;7.43;;;17.20;1.00;;;;;;5089531;28;20596;-84
2023/09/03 05:30:18;;;;;;;7.43;6.20;;;17.20;1.00;;;;;;5081556;28;21182;-82
2023/09/03 05:32:44;;;;;;;6.50;6.00;;;17.30;1.00;;;;;;5094905;28;20479;-83
2023/09/03 05:35:11;;;;;;;7.23;6.53;;;17.30;1.00;;;;;;5098904;28;20980;-85
2023/09/03 05:37:38;;;;;;;6.23;5.73;;;17.30;1.00;;;;;;5095191;28;20556;-83
2023/09/03 05:40:06;;;;;;;6.70;6.00;;;17.40;1.00;;;;;;5096788;28;20458;-79
2023/09/03 05:42:35;;;;;;;6.50;5.93;;;17.40;1.00;;;;;;5097683;28;21004;-86
2023/09/03 05:45:03;;;;;;;6.53;5.93;;;17.40;1.00;;;;;;5095204;28;20905;-85
2023/09/03 05:47:30;;;;;;;8.13;6.53;;;17.50;1.00;;;;;;5096484;28;20468;-85
2023/09/03 05:49:58;;;;;;;6.77;6.20;;;17.50;1.00;;;;;;5095151;28;20567;-83
2023/09/03 05:52:25;;;;;;;8.03;6.57;;;17.50;1.00;;;;;;5090188;28;20477;-77
2023/09/03 05:54:51;;;;;;;5.70;5.23;;;17.60;1.00;;;;;;5092090;28;20529;-76
2023/09/03 05:57:18;;;;;;;8.07;7.07;;;17.60;1.00;;;;;;5092960;28;20512;-76
2023/09/03 05:59:50;;;;;;;6.40;5.60;;;17.60;1.00;;;;;;5093900;28;20455;-79
2023/09/03 06:02:18;;;;;;;6.27;5.77;;;17.60;1.00;;;;;;5089651;28;20821;-77
2023/09/03 06:04:46;;;;;;;6.13;5.63;;;17.60;1.00;;;;;;5090474;28;20594;-77
2023/09/03 06:07:13;;;;;;;7.37;6.50;;;17.70;1.00;;;;;;5089280;28;20455;-77
2023/09/03 06:09:40;;;;;;;6.13;5.60;;;17.80;1.00;;;;;;5091136;28;20462;-77
2023/09/03 06:12:07;;;;;;;5.37;4.87;;;17.80;1.00;;;;;;5092331;28;20577;-78
2023/09/03 06:14:34;;;;;;;6.20;5.60;;;17.80;1.00;;;;;;5093116;28;20538;-78
2023/09/03 06:17:03;;;;;;;6.17;5.57;;;18.00;1.00;;;;;;5091640;28;20964;-77
2023/09/03 06:19:32;;;;;;;6.37;5.00;;;18.00;1.00;;;;;;5092522;28;20459;-78
2023/09/03 06:21:59;;;;;;;6.93;5.17;;;18.10;1.00;;;;;;5091318;28;21040;-77
2023/09/03 06:24:26;;;;;;;4.80;4.20;;;18.30;1.00;;;;;;5092784;28;20459;-77
2023/09/03 06:26:53;;;;;;;5.30;4.60;;;18.40;1.00;;;;;;5086476;28;20569;-77
2023/09/03 06:29:20;;;;;;;5.87;4.77;;;18.50;1.00;;;;;;5085968;28;20564;-77
2023/09/03 06:31:47;;;;;;;5.20;4.70;;;18.60;1.00;;;;;;5086921;28;20463;-76
2023/09/03 06:34:15;;;;;;;5.77;5.27;;;18.50;1.00;;;;;;5088284;28;20481;-76
2023/09/03 06:36:43;;;;;;;6.60;4.67;;;18.50;1.00;;;;;;5087472;28;20468;-76
2023/09/03 06:39:10;;;;;;;5.57;5.10;;;18.60;1.00;;;;;;5086532;28;20589;-75
2023/09/03 06:41:37;;;;;;;4.80;4.40;;;18.60;1.00;;;;;;5084782;28;21002;-77
2023/09/03 06:44:05;;;;;;;4.47;4.07;;;18.40;1.00;;;;;;5087612;28;20474;-75
2023/09/03 06:46:32;;;;;;;6.00;4.97;;;18.30;1.00;;;;;;5088381;28;20574;-77
2023/09/03 06:48:59;;;;;;;4.60;4.20;;;18.20;1.00;;;;;;5085001;28;20429;-78
2023/09/03 06:51:26;;;;;;;4.60;4.20;;;18.10;1.00;;;;;;5086955;28;20464;-76
2023/09/03 06:53:54;;;;;;;4.37;3.97;;;18.20;1.00;;;;;;5084685;28;20465;-75
2023/09/03 06:56:21;;;;;;;4.83;3.93;;;18.20;1.00;;;;;;5090070;28;21184;-77
2023/09/03 06:58:48;;;;;;;4.53;3.97;;;18.30;1.00;;;;;;5086533;28;20472;-77
2023/09/03 07:01:17;;;;;;;6.40;4.10;;;18.50;1.00;;;;;;5085334;28;20467;-75
2023/09/03 07:03:44;;;;;;;5.13;4.40;;;18.60;1.00;;;;;;5087210;28;20842;-72
2023/09/03 07:06:11;;;;;;;4.80;4.30;;;18.70;1.00;;;;;;5082249;28;20514;-72
2023/09/03 07:08:38;;;;;;;6.77;4.63;;;18.90;1.00;;;;;;5083516;28;20448;-73
2023/09/03 07:11:06;;;;;;;6.03;4.43;;;19.00;1.00;;;;;;5083497;28;20552;-73
2023/09/03 07:13:33;;;;;;;4.83;3.80;;;19.00;1.00;;;;;;5081739;28;20985;-76
2023/09/03 07:16:04;;;;;;;4.20;3.53;;;19.20;1.00;;;;;;5085577;28;20460;-72
2023/09/03 07:18:31;;;;;;;3.70;3.40;;;19.30;1.00;;;;;;5083314;28;20493;-72
2023/09/03 07:21:05;;;;;;;5.63;3.27;;;19.60;1.00;;;;;;5083856;28;20457;-75
2023/09/03 07:23:32;;;;;;;6.57;4.07;;;19.70;1.00;;;;;;5083490;28;20977;-72
2023/09/03 07:26:03;;;;;;;6.87;3.20;;;19.90;1.00;;;;;;5085730;28;20972;-71
2023/09/03 07:28:32;;;;;;;4.23;3.83;;;20.00;1.00;;;;;;5086888;27;20492;-72
2023/09/03 07:31:02;;;;;;;4.17;3.03;;;20.00;1.00;;;;;;5085585;27;20517;-73
2023/09/03 07:33:29;;;;;;;3.20;2.90;;;19.80;1.00;;;;;;5085457;28;20475;-71
2023/09/03 07:35:56;;;;;;;3.77;2.90;;;19.60;1.00;;;;;;5084543;28;20875;-70
2023/09/03 07:38:25;;;;;;;4.00;3.03;;;19.40;1.00;;;;;;5085475;28;20937;-72
2023/09/03 07:40:54;;;;;;;3.80;3.50;;;19.30;1.00;;;;;;5070810;28;20467;-71
2023/09/03 07:43:22;;;;;;;3.40;3.10;;;19.30;1.00;;;;;;5089794;28;20967;-72
2023/09/03 07:45:50;;;;;;;3.70;3.00;;;19.20;1.00;;;;;;5089847;28;20492;-71
2023/09/03 07:48:17;;;;;;;8.60;3.47;;;19.20;1.00;;;;;;5087375;28;20462;-72
2023/09/03 07:50:44;;;;;;;6.17;3.17;;;19.30;1.00;;;;;;5088211;28;20471;-71
2023/09/03 07:53:11;;;;;;;6.27;4.17;;;19.50;1.00;;;;;;5083164;28;20536;-72
2023/09/03 07:55:38;;;;;;;4.97;3.20;;;19.70;1.00;;;;;;5083259;28;20453;-76
2023/09/03 07:58:06;;;;;;;4.80;3.43;;;19.90;1.00;;;;;;5086713;28;20968;-71
2023/09/03 08:00:33;;;;;;;4.63;3.97;;;20.20;1.00;;;;;;5086612;28;20572;-71
2023/09/03 08:03:01;;;;;;;2.50;2.30;;;20.40;1.00;;;;;;5083101;27;20602;-71
2023/09/03 08:05:28;;;;;;;4.50;2.83;;;20.60;1.00;;;;;;5084155;28;20598;-73
2023/09/03 08:07:56;;;;;;;6.37;3.50;;;20.90;1.00;;;;;;5082534;28;20539;-72
2023/09/03 08:10:23;;;;;;;3.83;3.43;;;21.00;1.00;;;;;;5087725;28;21086;-75
2023/09/03 08:12:51;;;;;;;7.80;2.47;;;21.10;1.00;;;;;;5087563;28;20514;-79
2023/09/03 08:15:18;;;;;;;6.10;2.93;;;21.20;1.00;;;;;;5083020;28;20975;-76
2023/09/03 08:17:46;;;;;;;3.60;2.70;;;21.10;1.00;;;;;;5091419;28;20474;-74
2023/09/03 08:20:14;;;;;;;5.13;2.30;;;21.10;1.00;;;;;;5085945;28;20497;-78
2023/09/03 08:22:41;;;;;;;4.10;1.93;;;21.10;1.00;;;;;;5089072;28;20457;-75
2023/09/03 08:25:09;;;;;;;3.90;2.10;;;21.10;1.00;;;;;;5091928;28;20555;-80
2023/09/03 08:27:38;;;;;;;3.40;2.73;;;21.20;1.00;;;;;;5098523;28;20443;-73
2023/09/03 08:30:07;;;;;;;4.40;2.13;;;21.10;1.00;;;;;;5098819;28;20518;-75
2023/09/03 08:32:35;;;;;;;4.67;2.47;;;21.30;1.00;;;;;;5103010;28;20485;-79
2023/09/03 08:35:02;;;;;;;4.70;2.90;;;21.60;1.00;;;;;;5100915;28;20434;-79
2023/09/03 08:37:31;;;;;;;2.50;2.30;;;21.70;1.00;;;;;;5099411;28;20449;-74
2023/09/03 08:39:58;;;;;;;2.60;2.17;;;21.80;1.00;;;;;;5103743;28;20477;-78
2023/09/03 08:42:26;;;;;;;3.80;2.63;;;21.90;1.00;;;;;;5105426;28;21129;-81
2023/09/03 08:44:57;;;;;;;4.03;2.77;;;22.20;1.00;;;;;;5104612;28;20420;-80
2023/09/03 08:47:25;;;;;;;3.83;2.80;;;22.30;1.00;;;;;;5105720;28;20421;-78
2023/09/03 08:49:53;;;;;;;2.90;2.40;;;22.40;1.00;;;;;;5102625;28;20500;-80
2023/09/03 08:52:20;;;;;;;6.33;4.30;;;22.60;1.00;;;;;;5105502;28;20431;-79
2023/09/03 08:54:49;;;;;;;3.47;2.80;;;22.80;1.00;;;;;;5102055;28;20477;-80
2023/09/03 08:57:16;;;;;;;3.53;2.97;;;22.80;1.00;;;;;;5103278;28;20503;-76
2023/09/03 08:59:43;;;;;;;5.43;3.50;;;22.80;1.00;;;;;;5106353;28;20450;-78
2023/09/03 09:02:13;;;;;;;5.93;3.70;;;22.70;1.00;;;;;;5101548;28;20460;-77
2023/09/03 09:04:41;;;;;;;5.17;4.67;;;22.70;1.00;;;;;;5103938;28;20469;-75
2023/09/03 09:07:09;;;;;;;8.53;3.40;;;22.80;1.00;;;;;;5106045;28;20542;-80
2023/09/03 09:09:38;;;;;;;4.50;3.10;;;23.10;1.00;;;;;;5105502;27;20438;-80
2023/09/03 09:12:22;;;;;;;4.20;2.83;;;23.20;1.00;;;;;;5106115;28;20433;-80
2023/09/03 09:14:54;;;;;;;5.00;3.40;;;23.10;1.00;;;;;;5107859;28;20463;-81
2023/09/03 09:17:21;;;;;;;2.40;2.20;;;23.30;1.00;;;;;;5105595;28;20549;-76
2023/09/03 09:19:48;;;;;;;5.80;2.50;;;23.40;1.00;;;;;;5103303;28;21216;-79
2023/09/03 09:22:15;;;;;;;2.27;1.90;;;23.40;1.00;;;;;;5101936;28;20442;-79
2023/09/03 09:24:44;;;;;;;2.10;1.90;;;23.70;1.00;;;;;;5104605;28;20489;-78
2023/09/03 09:27:16;;;;;;;2.07;1.63;;;24.00;1.00;;;;;;5101865;28;20496;-79
2023/09/03 09:29:44;;;;;;;5.43;2.20;;;24.70;1.00;;;;;;5106441;28;20487;-81
2023/09/03 09:32:19;;;;;;;2.43;1.43;;;25.80;1.00;;;;;;5101954;28;20458;-78
2023/09/03 09:34:46;;;;;;;2.97;2.30;;;26.90;1.00;;;;;;5104137;28;20431;-80
2023/09/03 09:37:15;;;;;;;2.63;1.70;;;27.20;1.00;;;;;;5105043;28;20496;-80
2023/09/03 09:39:46;;;;;;;2.30;2.10;;;27.10;1.00;;;;;;5100966;28;20505;-77
2023/09/03 09:42:18;;;;;;;3.37;2.13;;;27.40;1.00;;;;;;5101546;28;20451;-76
2023/09/03 09:45:00;;;;;;;1.87;1.77;;;27.60;1.00;;;;;;5106661;28;20453;-82
2023/09/03 09:47:27;;;;;;;5.80;5.30;;;27.80;1.00;;;;;;5103986;28;20452;-79
2023/09/03 09:49:54;;;;;;;1.97;1.60;;;27.60;1.00;;;;;;5103595;28;20477;-80
2023/09/03 09:52:21;;;;;;;2.80;1.57;;;27.30;1.00;;;;;;5103904;28;20426;-77
2023/09/03 09:54:49;;;;;;;2.00;1.70;;;27.40;1.00;;;;;;5102187;28;20468;-80
2023/09/03 09:57:22;;;;;;;2.60;2.00;;;27.30;1.00;;;;;;5104559;28;20940;-80
2023/09/03 09:59:53;;;;;;;2.60;1.63;;;27.20;1.00;;;;;;5098562;28;20479;-72
2023/09/03 10:02:20;;;;;;;2.77;1.97;;;27.20;1.00;;;;;;5086916;28;20574;-80
2023/09/03 10:04:48;;;;;;;4.03;2.30;;;26.90;1.00;;;;;;5087667;28;20898;-82
2023/09/03 10:07:16;;;;;;;3.20;1.87;;;27.20;1.00;;;;;;5096002;28;20454;-77
2023/09/03 10:09:44;;;;;;;4.30;3.80;;;27.70;1.00;;;;;;5092811;28;20499;-82
2023/09/03 10:14:52;;;;;;;2.87;1.43;;;27.10;1.00;;;;;;5046618;27;1421013;-78
2023/09/03 10:17:19;;;;;;;1.93;1.57;;;27.50;1.00;;;;;;5092615;27;20255;-79
2023/09/03 10:19:50;;;;;;;3.47;1.97;;;27.70;1.00;;;;;;5096035;28;20457;-78
2023/09/03 10:22:19;;;;;;;1.83;1.63;;;28.40;1.00;;;;;;5098611;27;20422;-79
2023/09/03 10:24:50;;;;;;;1.70;1.43;;;29.20;1.00;;;;;;5080633;28;20538;-78
2023/09/03 10:27:29;;;;;;;2.10;1.63;;;29.30;1.00;;;;;;5078991;28;20569;-79
2023/09/03 10:30:03;;;;;;;2.67;1.70;;;29.30;1.00;;;;;;5090482;27;20969;-80
2023/09/03 10:32:33;;;;;;;2.93;2.03;;;29.50;1.00;;;;;;5087216;28;20513;-79
2023/09/03 10:35:08;;;;;;;2.43;1.90;;;29.50;1.00;;;;;;5095118;28;20504;-79
2023/09/03 10:37:37;;;;;;;1.90;1.60;;;29.40;1.00;;;;;;5103955;27;20553;-79
2023/09/03 10:40:20;;;;;;;2.03;1.70;;;29.40;1.00;;;;;;5097640;27;20475;-82
2023/09/03 10:42:50;;;;;;;2.50;1.73;;;29.30;1.00;;;;;;5090436;27;20541;-80
2023/09/03 10:45:19;;;;;;;2.03;1.90;;;28.80;1.00;;;;;;5101373;27;20469;-81
2023/09/03 10:48:03;;;;;;;2.57;2.07;;;28.60;1.00;;;;;;5099682;27;20476;-79
2023/09/03 10:50:48;;;;;;;2.77;1.90;;;29.10;1.00;;;;;;5092998;27;20990;-81
2023/09/03 10:53:37;;;;;;;3.43;1.77;;;29.90;1.00;;;;;;5099285;27;20461;-81
2023/09/03 10:56:09;;;;;;;3.00;1.50;;;30.90;1.00;;;;;;5095799;27;20610;-81
2023/09/03 10:58:53;;;;;;;3.67;2.07;;;32.20;1.00;;;;;;5095605;27;20449;-80
2023/09/03 11:01:26;;;;;;;2.40;1.83;;;33.00;1.00;;;;;;5084572;28;20859;-80
2023/09/03 11:03:54;;;;;;;3.37;2.00;;;33.90;1.00;;;;;;5084347;27;20467;-81
2023/09/03 11:06:22;;;;;;;3.47;2.70;;;33.60;1.00;;;;;;5090282;28;20479;-80
2023/09/03 11:09:10;;;;;;;2.57;2.00;;;32.60;1.00;;;;;;5089532;28;20497;-80
2023/09/03 11:11:38;;;;;;;2.90;2.13;;;31.60;1.00;;;;;;5099570;27;20412;-81
2023/09/03 11:14:10;;;;;;;2.17;1.97;;;31.10;1.00;;;;;;5098041;28;21611;-80
2023/09/03 11:16:41;;;;;;;2.47;2.10;;;30.60;1.00;;;;;;5102777;27;20501;-80
2023/09/03 11:19:08;;;;;;;2.03;1.80;;;30.40;1.00;;;;;;5090278;27;21164;-80
2023/09/03 11:21:36;;;;;;;1.90;1.77;;;30.10;1.00;;;;;;5101118;27;20516;-80
2023/09/03 11:24:04;;;;;;;2.60;2.20;;;30.10;1.00;;;;;;5097613;27;20972;-79
2023/09/03 11:26:33;;;;;;;2.60;2.40;;;30.00;1.00;;;;;;5086507;27;20469;-79
2023/09/03 11:29:02;;;;;;;4.30;2.30;;;29.90;1.00;;;;;;5085222;28;20457;-79
2023/09/03 11:31:30;;;;;;;2.07;1.87;;;29.60;1.00;;;;;;5084000;28;20564;-79
2023/09/03 11:33:59;;;;;;;2.57;2.07;;;29.30;1.00;;;;;;5087477;28;20462;-80
2023/09/03 11:36:26;;;;;;;4.23;2.60;;;29.20;1.00;;;;;;5084927;28;21254;-79
2023/09/03 11:38:55;;;;;;;2.13;1.93;;;29.30;1.00;;;;;;5086788;28;20545;-79
2023/09/03 11:41:24;;;;;;;3.23;2.33;;;29.60;1.00;;;;;;5086255;28;20474;-80
2023/09/03 11:43:52;;;;;;;2.17;1.97;;;29.60;1.00;;;;;;5090145;28;20462;-79
2023/09/03 11:46:19;;;;;;;2.40;1.90;;;29.40;1.00;;;;;;5087264;28;20488;-81
2023/09/03 11:48:50;;;;;;;11.33;4.93;;;29.30;1.00;;;;;;5087131;28;20566;-78
2023/09/03 11:51:26;;;;;;;2.40;2.20;;;29.50;1.00;;;;;;5076422;28;20860;-81
2023/09/03 11:53:53;;;;;;;2.20;2.00;;;29.50;1.00;;;;;;5079965;28;20456;-80
2023/09/03 11:56:23;;;;;;;4.77;4.30;;;29.30;1.00;;;;;;5088135;27;21272;-78
2023/09/03 11:58:53;;;;;;;2.80;1.70;;;28.90;1.00;;;;;;5086063;28;20460;-79
2023/09/03 12:01:20;;;;;;;1.97;1.80;;;28.80;1.00;;;;;;5085976;28;20459;-79
2023/09/03 12:03:48;;;;;;;4.97;2.27;;;29.00;1.00;;;;;;5086289;28;20473;-79
2023/09/03 12:06:18;;;;;;;2.00;1.77;;;29.10;1.00;;;;;;5086477;28;20461;-78
2023/09/03 12:08:48;;;;;;;2.27;2.07;;;29.00;1.00;;;;;;5073306;28;20462;-82
2023/09/03 12:11:16;;;;;;;3.10;2.57;;;28.90;1.00;;;;;;5086234;28;20461;-78
2023/09/03 12:13:44;;;;;;;2.80;2.13;;;28.90;1.00;;;;;;5086196;27;20449;-80
2023/09/03 12:16:14;;;;;;;3.33;2.33;;;28.30;1.00;;;;;;5085206;27;20439;-79
2023/09/03 12:18:57;;;;;;;3.67;2.20;;;28.00;1.00;;;;;;5082203;28;20556;-80
2023/09/03 12:21:33;;;;;;;2.67;2.20;;;27.90;1.00;;;;;;5082839;28;20457;-82
2023/09/03 12:24:03;;;;;;;3.33;2.87;;;27.90;1.00;;;;;;5086427;27;20559;-80
2023/09/03 12:26:35;;;;;;;3.17;2.23;;;27.90;1.00;;;;;;5081334;28;20477;-81
2023/09/03 12:29:04;;;;;;;3.07;2.30;;;28.10;1.00;;;;;;5069947;28;20450;-81
2023/09/03 12:31:50;;;;;;;4.63;2.20;;;28.30;1.00;;;;;;5087097;28;20916;-80
2023/09/03 12:34:36;;;;;;;3.20;2.00;;;28.80;1.00;;;;;;5071029;28;20446;-79
2023/09/03 12:37:04;;;;;;;4.93;2.27;;;29.30;1.00;;;;;;5074190;28;20438;-78
2023/09/03 12:39:34;;;;;;;2.77;1.80;;;29.70;1.00;;;;;;5080775;28;20532;-77
2023/09/03 12:42:02;;;;;;;4.27;2.33;;;30.00;1.00;;;;;;5071886;28;20550;-79
2023/09/03 12:44:29;;;;;;;3.97;2.23;;;30.40;1.00;;;;;;5084279;28;20461;-78
2023/09/03 12:46:57;;;;;;;1.80;1.70;;;30.20;1.00;;;;;;5079340;28;20550;-77
2023/09/03 12:49:26;;;;;;;4.53;2.37;;;30.10;1.00;;;;;;5080052;28;20516;-78
2023/09/03 12:51:55;;;;;;;3.40;1.90;;;30.20;1.00;;;;;;5074616;28;20534;-76
2023/09/03 12:54:23;;;;;;;4.90;2.90;;;30.00;1.00;;;;;;5075629;28;20446;-77
2023/09/03 12:56:53;;;;;;;4.50;2.80;;;30.20;1.00;;;;;;5083228;28;20970;-78
2023/09/03 12:59:20;;;;;;;2.27;2.00;;;31.10;1.00;;;;;;5086088;28;21864;-78
2023/09/03 13:01:47;;;;;;;1.83;1.50;;;32.00;1.00;;;;;;5085867;28;20545;-77